Time;durP1;ratioP1;P1;durP2;ratioP2;P2;SDS_P1;SDS_P2;PMS_P1;PMS_P2;Temp;Humidity;BMP_temperature;BMP_pressure;BME280_temperature;BME280_humidity;BME280_pressure;Samples;Min_cycle;Max_cycle;Signal;HPM_P1;HPM_P2
2021/10/06 06:35:25;;;;;;;;;;;;;;;16.06;79.18;100379.78;5071622;28;1216;-59
2021/10/06 06:37:50;;;;;;;;;;;;;;;16.03;79.00;100382.75;5059682;28;1437;-61
2021/10/06 06:40:16;;;;;;;;;;;;;;;16.01;80.12;100383.88;5058935;28;1280;-60
2021/10/06 06:42:41;;;;;;;;;;;;;;;15.98;80.22;100396.63;5051633;28;1615;-60
2021/10/06 06:45:06;;;;;;;;;;;;;;;16.03;79.40;100388.13;5071998;28;1754;-60
2021/10/06 06:47:31;;;;;;;;;;;;;;;16.11;78.14;100395.47;5059914;28;1888;-61
2021/10/06 06:49:56;;;;;;;;;;;;;;;16.14;78.41;100390.63;5047579;28;2515;-59
2021/10/06 06:52:21;;;;;;;;;;;;;;;16.15;78.61;100397.69;5045798;28;1866;-60
2021/10/06 06:54:46;;;;;;;;;;;;;;;16.18;78.66;100400.09;5032535;28;1969;-60
2021/10/06 06:57:11;;;;;;;;;;;;;;;16.21;78.76;100397.13;5043345;28;1982;-59
2021/10/06 06:59:37;;;;;;;;;;;;;;;16.25;78.49;100400.38;5037827;28;1799;-60
2021/10/06 07:02:02;;;;;;;;;;;;;;;16.26;78.40;100413.66;5037185;28;986;-60
2021/10/06 07:04:27;;;;;;;;;;;;;;;16.28;77.88;100426.97;5044671;28;1647;-58
2021/10/06 07:06:55;;;;;;;;;;;;;;;16.30;78.17;100430.38;5066285;28;1886;-59
2021/10/06 07:09:24;;;;;;;;;;;;;;;16.30;78.66;100430.38;5052166;28;932;-60
2021/10/06 07:11:49;;;;;;;;;;;;;;;16.29;78.83;100426.81;5051915;28;877;-60
2021/10/06 07:14:14;;;;;;;;;;;;;;;16.30;78.65;100430.38;5051449;28;1902;-61
2021/10/06 07:16:39;;;;;;;;;;;;;;;16.31;78.70;100434.72;5051175;28;1921;-60
2021/10/06 07:19:04;;;;;;;;;;;;;;;16.31;78.61;100434.72;5051989;28;1077;-61
2021/10/06 07:21:30;;;;;;;;;;;;;;;16.32;78.72;100437.25;5051787;28;942;-59
2021/10/06 07:23:55;;;;;;;;;;;;;;;16.33;78.56;100447.03;5050789;28;2123;-59
2021/10/06 07:26:20;;;;;;;;;;;;;;;16.35;77.58;100440.66;5051671;28;1877;-60
2021/10/06 07:28:45;;;;;;;;;;;;;;;16.36;77.70;100447.72;5051811;28;1029;-60
2021/10/06 07:31:10;;;;;;;;;;;;;;;16.37;77.91;100457.50;5051434;28;989;-60
2021/10/06 07:33:35;;;;;;;;;;;;;;;16.39;78.53;100460.88;5051238;28;1902;-59
2021/10/06 07:36:00;;;;;;;;;;;;;;;16.39;78.45;100460.88;5051180;28;1891;-58
2021/10/06 07:38:25;;;;;;;;;;;;;;;16.43;78.42;100460.47;5050833;28;1959;-58
2021/10/06 07:40:50;;;;;;;;;;;;;;;16.44;78.82;100458.63;5052704;28;1419;-61
2021/10/06 07:43:15;;;;;;;;;;;;;;;16.52;78.49;100450.66;5063271;28;1251;-58
2021/10/06 07:45:40;;;;;;;;;;;;;;;16.48;78.74;100468.09;5052079;28;1355;-60
2021/10/06 07:48:05;;;;;;;;;;;;;;;16.46;78.28;100479.00;5039113;28;1944;-59
2021/10/06 07:50:31;;;;;;;;;;;;;;;16.45;78.21;100485.38;5046823;28;1364;-60
2021/10/06 07:52:56;;;;;;;;;;;;;;;16.44;78.45;100485.50;5048473;28;1358;-60
2021/10/06 07:55:22;;;;;;;;;;;;;;;16.45;78.03;100482.69;5042167;28;1910;-60
2021/10/06 07:57:47;;;;;;;;;;;;;;;16.46;77.36;100492.44;5042072;28;1639;-58
2021/10/06 08:00:12;;;;;;;;;;;;;;;16.51;78.15;100497.38;5049430;28;1201;-60
2021/10/06 08:02:38;;;;;;;;;;;;;;;16.51;78.52;100492.84;5048579;28;1242;-60
2021/10/06 08:05:03;;;;;;;;;;;;;;;16.49;78.69;100485.91;5046285;28;1362;-60
2021/10/06 08:07:28;;;;;;;;;;;;;;;16.50;78.32;100492.97;5046179;28;1788;-60
2021/10/06 08:09:53;;;;;;;;;;;;;;;16.53;78.19;100500.75;5044116;28;1221;-60
2021/10/06 08:12:18;;;;;;;;;;;;;;;16.56;77.96;100500.47;5037119;28;988;-62
2021/10/06 08:14:43;;;;;;;;;;;;;;;16.63;77.72;100507.00;5035617;28;1901;-61
2021/10/06 08:17:08;;;;;;;;;;;;;;;16.76;77.42;100504.81;5037012;28;1024;-58
2021/10/06 08:19:33;;;;;;;;;;;;;;;16.81;77.31;100507.09;5036688;28;831;-59
2021/10/06 08:21:58;;;;;;;;;;;;;;;16.83;77.83;100507.78;5036884;28;1057;-60
2021/10/06 08:24:23;;;;;;;;;;;;;;;16.89;77.96;100516.09;5036740;28;1654;-60
2021/10/06 08:26:48;;;;;;;;;;;;;;;16.95;77.70;100520.91;5036882;28;1029;-60
2021/10/06 08:29:13;;;;;;;;;;;;;;;16.98;77.24;100531.38;5036960;28;1080;-60
2021/10/06 08:31:38;;;;;;;;;;;;;;;17.03;77.46;100538.97;5036345;28;1016;-59
2021/10/06 08:34:04;;;;;;;;;;;;;;;17.02;76.15;100543.53;5036335;28;1930;-59
2021/10/06 08:36:29;;;;;;;;;;;;;;;17.09;76.55;100548.31;5035361;28;871;-60
2021/10/06 08:38:54;;;;;;;;;;;;;;;17.18;77.04;100567.13;5036513;28;906;-59
2021/10/06 08:41:19;;;;;;;;;;;;;;;17.14;76.44;100557.66;5036338;28;926;-59
2021/10/06 08:43:44;;;;;;;;;;;;;;;17.07;76.80;100558.38;5036120;28;1610;-59
2021/10/06 08:46:09;;;;;;;;;;;;;;;17.06;76.82;100567.47;5036375;28;2154;-59
2021/10/06 08:48:34;;;;;;;;;;;;;;;17.07;77.58;100569.16;5036312;28;934;-59
2021/10/06 08:51:00;;;;;;;;;;;;;;;17.12;76.87;100580.34;5036317;28;886;-59
2021/10/06 08:53:25;;;;;;;;;;;;;;;17.14;76.31;100583.72;5036331;28;1928;-59
2021/10/06 08:55:50;;;;;;;;;;;;;;;17.16;77.36;100589.81;5036346;28;807;-59
2021/10/06 08:58:15;;;;;;;;;;;;;;;17.17;77.28;100592.38;5035364;28;1077;-59
2021/10/06 09:00:40;;;;;;;;;;;;;;;17.18;77.10;100593.22;5036139;28;910;-59
2021/10/06 09:03:06;;;;;;;;;;;;;;;17.13;77.05;100598.19;5036140;28;1794;-59
2021/10/06 09:05:31;;;;;;;;;;;;;;;17.14;77.53;100602.59;5036147;28;1722;-61
2021/10/06 09:07:56;;;;;;;;;;;;;;;17.13;77.32;100606.28;5035810;28;882;-61
2021/10/06 09:10:21;;;;;;;;;;;;;;;17.10;77.33;100611.94;5035815;28;916;-59
2021/10/06 09:12:46;;;;;;;;;;;;;;;17.08;77.06;100609.41;5035539;28;1809;-58
2021/10/06 09:15:11;;;;;;;;;;;;;;;17.10;77.14;100617.31;5035598;28;1953;-61
2021/10/06 09:17:36;;;;;;;;;;;;;;;17.15;77.02;100629.38;5034990;28;1504;-60
2021/10/06 09:20:01;;;;;;;;;;;;;;;17.19;76.92;100629.94;5034966;28;1773;-61
2021/10/06 09:22:27;;;;;;;;;;;;;;;17.24;76.92;100636.53;5035532;28;1786;-62
2021/10/06 09:24:52;;;;;;;;;;;;;;;17.24;76.41;100641.09;5035388;28;1766;-62
2021/10/06 09:27:17;;;;;;;;;;;;;;;17.26;76.40;100644.47;5034859;28;1756;-60
2021/10/06 09:29:42;;;;;;;;;;;;;;;17.34;76.99;100650.00;5035204;28;1659;-60
2021/10/06 09:32:07;;;;;;;;;;;;;;;17.38;76.96;100645.16;5034813;28;1826;-60
2021/10/06 09:34:32;;;;;;;;;;;;;;;17.39;76.64;100658.47;5034985;28;1926;-60
2021/10/06 09:36:57;;;;;;;;;;;;;;;17.40;76.74;100659.31;5033020;28;1574;-61
2021/10/06 09:39:22;;;;;;;;;;;;;;;17.38;77.12;100670.22;5034579;28;1756;-59
2021/10/06 09:41:49;;;;;;;;;;;;;;;17.37;77.41;100673.94;5029792;28;1830;-60
2021/10/06 09:44:18;;;;;;;;;;;;;;;17.35;77.16;100681.31;5016278;28;839;-59
2021/10/06 09:46:43;;;;;;;;;;;;;;;17.33;76.52;100686.00;5019112;28;1607;-61
2021/10/06 09:49:08;;;;;;;;;;;;;;;17.31;76.73;100699.63;5035654;28;1101;-61
2021/10/06 09:51:33;;;;;;;;;;;;;;;17.28;77.12;100693.66;5029830;28;1594;-59
2021/10/06 09:53:58;;;;;;;;;;;;;;;17.29;76.99;100700.75;5015360;28;1911;-58
2021/10/06 09:56:23;;;;;;;;;;;;;;;17.29;77.07;100712.38;5025733;28;1753;-60
2021/10/06 09:58:49;;;;;;;;;;;;;;;17.29;76.83;100706.13;5034898;28;1861;-59
2021/10/06 10:01:14;;;;;;;;;;;;;;;17.28;77.20;100699.91;5034741;28;1613;-59
2021/10/06 10:03:39;;;;;;;;;;;;;;;17.28;75.84;100707.13;5034877;28;1567;-58
2021/10/06 10:06:05;;;;;;;;;;;;;;;17.31;76.05;100709.53;5035401;28;1064;-58
2021/10/06 10:08:30;;;;;;;;;;;;;;;17.36;75.70;100712.66;5034872;28;1637;-58
2021/10/06 10:10:55;;;;;;;;;;;;;;;17.45;76.20;100724.38;5035359;28;1913;-59
2021/10/06 10:13:20;;;;;;;;;;;;;;;17.51;75.89;100724.66;5035091;28;2010;-61
2021/10/06 10:15:45;;;;;;;;;;;;;;;17.60;75.82;100733.69;5034827;28;1017;-60
2021/10/06 10:18:10;;;;;;;;;;;;;;;17.65;76.04;100731.44;5034439;28;1605;-61
2021/10/06 10:20:35;;;;;;;;;;;;;;;17.71;75.88;100738.09;5034659;28;1974;-61
2021/10/06 10:23:00;;;;;;;;;;;;;;;17.77;75.90;100741.00;5034541;28;1806;-61
2021/10/06 10:25:25;;;;;;;;;;;;;;;17.82;75.86;100743.28;5034600;28;1237;-61
2021/10/06 10:27:50;;;;;;;;;;;;;;;17.86;75.36;100752.78;5034818;28;1631;-60
2021/10/06 10:30:15;;;;;;;;;;;;;;;17.89;75.73;100749.78;5034247;28;1746;-59
2021/10/06 10:32:40;;;;;;;;;;;;;;;17.93;75.72;100761.94;5034538;28;1025;-61
2021/10/06 10:35:06;;;;;;;;;;;;;;;17.97;75.86;100766.03;5038661;28;1910;-59
2021/10/06 10:37:31;;;;;;;;;;;;;;;17.93;75.72;100776.28;5051017;28;1514;-59
2021/10/06 10:39:56;;;;;;;;;;;;;;;17.86;75.17;100777.03;5034907;28;1829;-59
2021/10/06 10:42:21;;;;;;;;;;;;;;;17.78;75.71;100774.22;5035184;28;918;-59
2021/10/06 10:44:47;;;;;;;;;;;;;;;17.73;75.71;100777.38;5035001;28;1232;-60
2021/10/06 10:47:12;;;;;;;;;;;;;;;17.70;75.61;100783.06;5035582;28;3009;-58
2021/10/06 10:49:37;;;;;;;;;;;;;;;17.67;75.92;100794.97;5035740;28;2591;-60
2021/10/06 10:52:02;;;;;;;;;;;;;;;17.65;75.39;100796.97;4138353;28;10000932;-59
2021/10/06 10:54:27;;;;;;;;;;;;;;;17.66;75.35;100801.34;4995474;28;1974;-59
2021/10/06 10:56:53;;;;;;;;;;;;;;;17.69;75.72;100811.84;4995584;28;1088;-57
2021/10/06 10:59:18;;;;;;;;;;;;;;;17.75;75.55;100806.84;4994765;28;1907;-60
2021/10/06 11:01:43;;;;;;;;;;;;;;;17.77;75.20;100812.94;4985808;28;7959;-59
2021/10/06 11:04:08;;;;;;;;;;;;;;;17.81;74.99;100808.97;5000559;28;1510;-59
2021/10/06 11:06:34;;;;;;;;;;;;;;;17.81;74.76;100800.88;4994560;28;1895;-62
2021/10/06 11:08:59;;;;;;;;;;;;;;;17.84;75.49;100805.97;4999183;28;1705;-59
2021/10/06 11:11:24;;;;;;;;;;;;;;;17.80;75.11;100804.56;4994894;28;1662;-59
2021/10/06 11:13:49;;;;;;;;;;;;;;;17.77;74.95;100803.00;4988286;28;3106;-59
2021/10/06 11:16:14;;;;;;;;;;;;;;;17.75;75.77;100809.53;4995074;28;2176;-60
2021/10/06 11:18:40;;;;;;;;;;;;;;;17.72;75.74;100810.72;4987917;28;1700;-59
2021/10/06 11:21:05;;;;;;;;;;;;;;;17.68;75.96;100814.69;4996347;28;1893;-59
2021/10/06 11:23:30;;;;;;;;;;;;;;;17.66;75.82;100817.53;4999229;28;1888;-59
2021/10/06 11:25:55;;;;;;;;;;;;;;;17.65;76.04;100818.53;4998961;28;822;-59
2021/10/06 11:28:21;;;;;;;;;;;;;;;17.65;75.90;100821.22;4998278;28;2088;-60
2021/10/06 11:30:46;;;;;;;;;;;;;;;17.63;76.30;100823.16;4998366;28;1699;-59
2021/10/06 11:33:11;;;;;;;;;;;;;;;17.62;75.88;100817.94;4998204;28;1942;-59
2021/10/06 11:35:36;;;;;;;;;;;;;;;17.62;76.30;100823.31;4998731;28;1774;-59
2021/10/06 11:38:01;;;;;;;;;;;;;;;17.61;76.34;100824.31;4998265;28;1714;-59
2021/10/06 11:40:26;;;;;;;;;;;;;;;17.60;76.29;100826.16;4998399;28;1881;-60
2021/10/06 11:42:51;;;;;;;;;;;;;;;17.60;76.24;100830.69;4998439;28;1769;-59
2021/10/06 11:45:16;;;;;;;;;;;;;;;17.60;76.13;100836.94;4998594;28;915;-59
2021/10/06 11:47:41;;;;;;;;;;;;;;;17.62;76.00;100836.78;4997900;28;1822;-60
2021/10/06 11:50:06;;;;;;;;;;;;;;;17.65;76.10;100842.78;4996595;28;1995;-60
2021/10/06 11:52:31;;;;;;;;;;;;;;;17.67;75.42;100842.63;4998675;28;914;-59
2021/10/06 11:54:56;;;;;;;;;;;;;;;17.67;75.56;100840.78;4998478;28;1895;-60
2021/10/06 11:57:22;;;;;;;;;;;;;;;17.69;75.39;100844.19;4995227;28;1919;-60
2021/10/06 11:59:47;;;;;;;;;;;;;;;17.71;75.33;100848.59;4997786;28;1838;-60
2021/10/06 12:02:12;;;;;;;;;;;;;;;17.72;75.19;100855.69;4997843;28;1984;-60
2021/10/06 12:04:37;;;;;;;;;;;;;;;17.72;75.66;100848.44;4997604;28;1898;-60
2021/10/06 12:07:02;;;;;;;;;;;;;;;17.69;75.64;100857.66;4997436;28;1830;-59
2021/10/06 12:09:27;;;;;;;;;;;;;;;17.69;75.34;100862.22;4993595;28;1960;-60
2021/10/06 12:11:53;;;;;;;;;;;;;;;17.74;75.28;100864.44;5004712;23;1715;-59
2021/10/06 12:14:18;;;;;;;;;;;;;;;17.74;75.37;100865.28;4993532;28;1971;-57
2021/10/06 12:16:43;;;;;;;;;;;;;;;17.76;75.76;100874.09;4997732;28;1515;-57
2021/10/06 12:19:08;;;;;;;;;;;;;;;17.79;75.74;100886.44;4997621;28;1258;-60
2021/10/06 12:21:33;;;;;;;;;;;;;;;17.77;75.15;100888.41;4991903;28;1727;-60
2021/10/06 12:23:58;;;;;;;;;;;;;;;17.74;75.49;100896.78;4984123;28;1826;-57
2021/10/06 12:26:23;;;;;;;;;;;;;;;17.72;75.87;100904.19;4979767;28;1781;-59
2021/10/06 12:28:49;;;;;;;;;;;;;;;17.70;75.47;100901.66;4978552;28;1885;-60
2021/10/06 12:31:14;;;;;;;;;;;;;;;17.76;75.04;100906.44;4981736;28;1555;-60
2021/10/06 12:33:39;;;;;;;;;;;;;;;17.81;75.71;100908.72;4981820;28;1957;-60
2021/10/06 12:36:04;;;;;;;;;;;;;;;17.85;74.89;100916.38;4992848;28;1785;-60
2021/10/06 12:38:29;;;;;;;;;;;;;;;17.91;75.39;100912.25;4997563;28;1690;-59
2021/10/06 12:40:54;;;;;;;;;;;;;;;17.96;74.90;100923.44;4994574;28;1828;-60
2021/10/06 12:43:19;;;;;;;;;;;;;;;17.99;74.40;100923.16;4978369;28;1187;-59
2021/10/06 12:45:44;;;;;;;;;;;;;;;17.96;74.50;100929.69;4986786;28;1614;-59
2021/10/06 12:48:09;;;;;;;;;;;;;;;17.96;74.59;100934.22;4992108;28;2024;-60
2021/10/06 12:50:34;;;;;;;;;;;;;;;17.97;74.82;100933.22;4997261;28;1080;-60
2021/10/06 12:52:59;;;;;;;;;;;;;;;18.03;74.33;100932.66;4978175;28;2106;-59
2021/10/06 12:55:24;;;;;;;;;;;;;;;18.03;73.95;100935.34;4977730;28;1984;-59
2021/10/06 12:57:50;;;;;;;;;;;;;;;18.10;74.00;100944.53;4983936;28;2001;-59
2021/10/06 13:00:15;;;;;;;;;;;;;;;18.15;73.79;100947.66;4997187;28;1671;-59
2021/10/06 13:02:40;;;;;;;;;;;;;;;18.20;74.02;100947.22;4992185;28;1995;-57
2021/10/06 13:05:05;;;;;;;;;;;;;;;18.26;73.10;100952.91;4995221;28;1707;-57
2021/10/06 13:07:30;;;;;;;;;;;;;;;18.28;73.13;100964.38;4996736;28;1076;-59
2021/10/06 13:09:55;;;;;;;;;;;;;;;18.23;73.58;100961.28;4982610;28;1738;-59
2021/10/06 13:12:20;;;;;;;;;;;;;;;18.25;73.66;100969.22;4985650;28;1807;-59
2021/10/06 13:14:45;;;;;;;;;;;;;;;18.22;74.47;100975.78;4986504;28;1914;-60
2021/10/06 13:17:10;;;;;;;;;;;;;;;18.21;73.66;100979.47;4977819;28;1911;-59
2021/10/06 13:19:35;;;;;;;;;;;;;;;18.29;73.59;100981.41;4991787;28;1874;-60
2021/10/06 13:22:01;;;;;;;;;;;;;;;18.29;73.96;100986.81;4977302;28;943;-59
2021/10/06 13:24:26;;;;;;;;;;;;;;;18.32;73.85;101000.84;4977216;28;2043;-57
2021/10/06 13:26:51;;;;;;;;;;;;;;;18.36;73.29;101012.22;4977204;28;800;-58
2021/10/06 13:29:16;;;;;;;;;;;;;;;18.39;73.04;101011.94;4980462;28;1808;-58
2021/10/06 13:31:41;;;;;;;;;;;;;;;18.37;72.85;101020.16;4992987;28;1842;-57
2021/10/06 13:34:06;;;;;;;;;;;;;;;18.34;73.31;101030.41;4990288;28;1948;-58
2021/10/06 13:36:31;;;;;;;;;;;;;;;18.37;74.07;101025.56;4996414;28;867;-57
2021/10/06 13:38:56;;;;;;;;;;;;;;;18.41;73.48;101033.38;4996233;28;1018;-57
2021/10/06 13:41:22;;;;;;;;;;;;;;;18.47;73.75;101030.06;4994458;28;1967;-57
2021/10/06 13:43:47;;;;;;;;;;;;;;;18.48;72.54;101043.44;4995684;28;954;-57
2021/10/06 13:46:12;;;;;;;;;;;;;;;18.52;72.74;101049.38;4994928;28;1596;-58
2021/10/06 13:48:38;;;;;;;;;;;;;;;18.58;73.21;101057.75;4983852;28;1969;-57
2021/10/06 13:51:03;;;;;;;;;;;;;;;18.63;72.78;101060.06;4995512;28;1880;-57
2021/10/06 13:53:28;;;;;;;;;;;;;;;18.70;72.61;101059.31;4983101;28;1903;-57
2021/10/06 13:55:53;;;;;;;;;;;;;;;18.76;72.52;101063.28;4996201;28;1837;-60
2021/10/06 13:58:18;;;;;;;;;;;;;;;18.77;72.62;101075.78;4991101;28;2822;-58
2021/10/06 14:00:43;;;;;;;;;;;;;;;18.70;73.26;101077.38;4985125;28;1804;-58
2021/10/06 14:03:08;;;;;;;;;;;;;;;18.66;73.48;101089.44;4996111;28;1022;-57
2021/10/06 14:05:33;;;;;;;;;;;;;;;18.71;72.87;101092.56;4995793;28;1833;-58
2021/10/06 14:07:58;;;;;;;;;;;;;;;18.66;73.63;101105.63;4994440;28;1900;-58
2021/10/06 14:10:24;;;;;;;;;;;;;;;18.65;73.01;101110.19;4986493;28;1829;-57
2021/10/06 14:12:49;;;;;;;;;;;;;;;18.67;72.78;101110.91;4990657;28;1820;-57
2021/10/06 14:15:14;;;;;;;;;;;;;;;18.70;73.23;101115.16;4976303;28;1902;-58
2021/10/06 14:17:39;;;;;;;;;;;;;;;18.78;72.56;101126.09;4995064;28;1827;-58
2021/10/06 14:20:04;;;;;;;;;;;;;;;18.78;72.63;101130.66;4995008;28;1531;-58
2021/10/06 14:22:29;;;;;;;;;;;;;;;18.70;73.31;101134.06;4980136;28;2123;-58
2021/10/06 14:24:54;;;;;;;;;;;;;;;18.65;73.36;101137.19;4986147;28;1719;-58
2021/10/06 14:27:19;;;;;;;;;;;;;;;18.62;73.84;101152.84;4986972;28;2126;-58
2021/10/06 14:29:44;;;;;;;;;;;;;;;18.58;73.25;101152.25;4977533;28;1706;-58
2021/10/06 14:32:10;;;;;;;;;;;;;;;18.55;73.77;101167.88;4976347;28;1952;-58
2021/10/06 14:34:35;;;;;;;;;;;;;;;18.67;73.21;101174.84;4994354;28;1890;-58
2021/10/06 14:37:00;;;;;;;;;;;;;;;18.76;72.96;101175.84;4994306;28;1880;-59
2021/10/06 14:39:25;;;;;;;;;;;;;;;18.83;73.06;101172.41;4994273;28;1851;-58
2021/10/06 14:41:50;;;;;;;;;;;;;;;18.87;72.90;101173.81;4986012;28;1805;-58
2021/10/06 14:44:15;;;;;;;;;;;;;;;18.91;72.79;101188.75;4978820;28;1788;-58
2021/10/06 14:46:40;;;;;;;;;;;;;;;18.94;72.87;101191.16;4975938;28;1006;-58
2021/10/06 14:49:05;;;;;;;;;;;;;;;18.87;72.68;101199.97;4975989;28;1910;-59
2021/10/06 14:51:30;;;;;;;;;;;;;;;18.91;72.23;101196.00;4978854;28;1731;-58
2021/10/06 14:53:55;;;;;;;;;;;;;;;18.88;73.06;101197.13;4976337;28;1901;-58
2021/10/06 14:56:20;;;;;;;;;;;;;;;18.88;72.53;101209.78;4982290;28;1741;-58
2021/10/06 14:58:45;;;;;;;;;;;;;;;18.85;73.17;101201.97;4988330;28;1728;-59
2021/10/06 15:01:11;;;;;;;;;;;;;;;18.85;73.16;101202.81;4997968;28;1975;-58
2021/10/06 15:03:36;;;;;;;;;;;;;;;18.86;73.21;101209.06;4994870;28;1652;-59
2021/10/06 15:06:01;;;;;;;;;;;;;;;18.84;72.79;101217.31;4994226;28;1614;-58
2021/10/06 15:08:29;;;;;;;;;;;;;;;18.84;72.95;101222.72;4998995;28;804;-58
2021/10/06 15:10:54;;;;;;;;;;;;;;;18.79;73.22;101225.00;4995796;28;1922;-58
2021/10/06 15:13:19;;;;;;;;;;;;;;;18.79;73.12;101240.34;4998851;28;1906;-58
2021/10/06 15:15:44;;;;;;;;;;;;;;;18.73;73.29;101237.22;4995060;28;1967;-58
2021/10/06 15:18:09;;;;;;;;;;;;;;;18.69;73.92;101245.75;4985090;28;1895;-58
2021/10/06 15:20:34;;;;;;;;;;;;;;;18.65;73.73;101249.72;4990565;28;1928;-58
2021/10/06 15:22:59;;;;;;;;;;;;;;;18.62;74.11;101252.72;4994050;28;1692;-59
2021/10/06 15:25:24;;;;;;;;;;;;;;;18.62;73.41;101258.13;4999021;28;831;-59
2021/10/06 15:27:49;;;;;;;;;;;;;;;18.61;73.40;101269.91;4998913;28;2007;-58
2021/10/06 15:30:14;;;;;;;;;;;;;;;18.69;73.71;101275.44;4993097;28;1761;-58
2021/10/06 15:32:39;;;;;;;;;;;;;;;18.67;74.06;101277.44;4980702;28;1611;-58
2021/10/06 15:35:04;;;;;;;;;;;;;;;18.75;73.27;101282.13;4984652;28;1975;-59
2021/10/06 15:37:30;;;;;;;;;;;;;;;18.79;73.32;101283.56;4995318;28;1829;-58
2021/10/06 15:39:55;;;;;;;;;;;;;;;18.67;74.07;101286.38;4983397;28;1730;-58
2021/10/06 15:42:20;;;;;;;;;;;;;;;18.64;73.82;101291.19;4996063;28;3557;-58
2021/10/06 15:44:45;;;;;;;;;;;;;;;18.72;74.10;101291.38;4995736;28;3105;-58
2021/10/06 15:47:10;;;;;;;;;;;;;;;18.76;73.45;101298.19;4994242;28;2592;-59
2021/10/06 15:49:35;;;;;;;;;;;;;;;18.70;73.33;101304.16;4986806;28;1591;-59
2021/10/06 15:52:00;;;;;;;;;;;;;;;18.61;73.85;101313.09;4993956;28;2401;-58
2021/10/06 15:54:25;;;;;;;;;;;;;;;18.56;74.45;101320.72;4988512;28;1906;-58
2021/10/06 15:56:50;;;;;;;;;;;;;;;18.54;74.05;101322.72;4979170;28;855;-58
2021/10/06 15:59:15;;;;;;;;;;;;;;;18.64;73.08;101326.28;4986180;28;1988;-59
2021/10/06 16:01:40;;;;;;;;;;;;;;;18.66;73.68;101332.41;4989753;28;1798;-58
2021/10/06 16:04:06;;;;;;;;;;;;;;;18.60;74.35;101339.25;4987329;28;1724;-59
2021/10/06 16:06:31;;;;;;;;;;;;;;;18.54;74.04;101334.34;4997881;28;819;-58
2021/10/06 16:08:56;;;;;;;;;;;;;;;18.50;74.01;101349.13;4988259;28;1889;-58
2021/10/06 16:11:21;;;;;;;;;;;;;;;18.46;74.33;101350.38;4981895;28;1793;-58
2021/10/06 16:13:46;;;;;;;;;;;;;;;18.44;73.59;101352.38;4995540;28;1902;-58
2021/10/06 16:16:11;;;;;;;;;;;;;;;18.42;73.67;101357.06;4996047;28;1926;-59
2021/10/06 16:18:36;;;;;;;;;;;;;;;18.41;73.81;101370.69;4997566;28;1805;-58
2021/10/06 16:21:01;;;;;;;;;;;;;;;18.37;74.54;101370.97;4985575;28;1821;-59
2021/10/06 16:23:26;;;;;;;;;;;;;;;18.34;73.94;101373.94;4993819;28;1678;-59
2021/10/06 16:25:51;;;;;;;;;;;;;;;18.33;73.76;101387.56;4997925;28;1932;-58
2021/10/06 16:28:17;;;;;;;;;;;;;;;18.31;73.85;101392.22;4984562;28;1658;-59
2021/10/06 16:30:42;;;;;;;;;;;;;;;18.28;74.14;101398.75;4985437;28;1736;-58
2021/10/06 16:33:07;;;;;;;;;;;;;;;18.27;74.08;101398.91;4997733;28;900;-58
2021/10/06 16:35:32;;;;;;;;;;;;;;;18.23;74.00;101409.13;4996083;28;1965;-59
2021/10/06 16:37:57;;;;;;;;;;;;;;;18.21;74.15;101410.25;4995101;28;2368;-59
2021/10/06 16:40:22;;;;;;;;;;;;;;;18.20;74.05;101417.47;4993958;28;3136;-58
2021/10/06 16:42:48;;;;;;;;;;;;;;;18.21;73.31;101424.59;4997940;28;4133;-58
2021/10/06 16:45:13;;;;;;;;;;;;;;;18.19;74.05;101426.56;4993745;28;3321;-58
2021/10/06 16:47:38;;;;;;;;;;;;;;;18.18;74.55;101434.78;4988499;28;2401;-59
2021/10/06 16:50:05;;;;;;;;;;;;;;;18.17;74.11;101439.31;4996014;28;3559;-58
2021/10/06 16:52:30;;;;;;;;;;;;;;;18.16;73.89;101437.59;4994909;28;1729;-60
2021/10/06 16:54:55;;;;;;;;;;;;;;;18.13;73.96;101448.66;4996212;28;1898;-58
2021/10/06 16:57:20;;;;;;;;;;;;;;;18.12;74.69;101456.88;4996580;28;1987;-58
2021/10/06 16:59:45;;;;;;;;;;;;;;;18.11;73.59;101457.88;4996268;28;1811;-59
2021/10/06 17:02:10;;;;;;;;;;;;;;;18.09;74.20;101471.53;4991472;28;1730;-58
2021/10/06 17:04:35;;;;;;;;;;;;;;;18.07;74.76;101475.34;5000205;28;1866;-57
2021/10/06 17:07:01;;;;;;;;;;;;;;;18.04;74.15;101473.75;4999968;28;1967;-58
2021/10/06 17:09:26;;;;;;;;;;;;;;;18.02;74.29;101483.81;4995338;28;1496;-58
2021/10/06 17:11:51;;;;;;;;;;;;;;;18.01;74.13;101482.09;4993708;28;2219;-58
2021/10/06 17:14:16;;;;;;;;;;;;;;;18.00;74.80;101485.78;4985689;28;2082;-58
2021/10/06 17:16:41;;;;;;;;;;;;;;;17.98;74.11;101487.75;4995687;28;1986;-59
2021/10/06 17:19:06;;;;;;;;;;;;;;;17.97;74.11;101496.81;4991009;28;1790;-58
2021/10/06 17:21:34;;;;;;;;;;;;;;;17.95;74.08;101499.66;4987967;28;1532;-59
2021/10/06 17:23:59;;;;;;;;;;;;;;;17.94;73.89;101502.47;4988507;28;1791;-58
2021/10/06 17:26:24;;;;;;;;;;;;;;;17.93;74.52;101508.84;4988884;28;1675;-58
2021/10/06 17:28:49;;;;;;;;;;;;;;;17.92;73.98;101517.94;4977309;28;1957;-58
2021/10/06 17:31:15;;;;;;;;;;;;;;;17.89;73.66;101515.53;4977282;28;1022;-58
2021/10/06 17:33:40;;;;;;;;;;;;;;;17.88;73.94;101522.75;4988793;28;2297;-59
2021/10/06 17:36:05;;;;;;;;;;;;;;;17.87;74.65;101528.28;4994454;28;1705;-58
2021/10/06 17:38:30;;;;;;;;;;;;;;;17.86;74.03;101537.34;4992713;28;1676;-58
2021/10/06 17:40:56;;;;;;;;;;;;;;;17.85;73.97;101541.03;4994427;28;1652;-58
2021/10/06 17:43:21;;;;;;;;;;;;;;;17.84;74.06;101552.81;4995597;28;1649;-59
2021/10/06 17:45:46;;;;;;;;;;;;;;;17.82;74.42;101554.75;4994799;28;1513;-58
2021/10/06 17:48:11;;;;;;;;;;;;;;;17.80;74.44;101554.03;4993398;28;1728;-58
2021/10/06 17:50:36;;;;;;;;;;;;;;;17.79;74.46;101566.66;4994851;28;1950;-59
2021/10/06 17:53:02;;;;;;;;;;;;;;;17.78;74.05;101572.19;4994588;28;1723;-59
2021/10/06 17:55:27;;;;;;;;;;;;;;;17.76;74.33;101569.59;4990201;28;1902;-58
2021/10/06 17:57:52;;;;;;;;;;;;;;;17.75;74.63;101569.72;4993759;28;1737;-59
2021/10/06 18:00:17;;;;;;;;;;;;;;;17.74;74.08;101576.09;4994186;28;1981;-58
2021/10/06 18:02:42;;;;;;;;;;;;;;;17.73;74.03;101580.66;4993692;28;1664;-58
2021/10/06 18:05:07;;;;;;;;;;;;;;;17.72;74.71;101584.34;4992952;28;1583;-59
2021/10/06 18:07:32;;;;;;;;;;;;;;;17.71;74.41;101589.88;5000948;28;1539;-59
2021/10/06 18:09:58;;;;;;;;;;;;;;;17.68;74.62;101594.53;5001622;28;1894;-59
2021/10/06 18:12:23;;;;;;;;;;;;;;;17.68;74.37;101597.22;4994558;28;1862;-60
2021/10/06 18:14:48;;;;;;;;;;;;;;;17.67;74.60;101606.28;4999849;28;1973;-61
2021/10/06 18:17:13;;;;;;;;;;;;;;;17.66;74.55;101601.03;4994818;28;1691;-61
2021/10/06 18:19:38;;;;;;;;;;;;;;;17.66;74.44;101612.66;4996994;28;2459;-61
2021/10/06 18:22:06;;;;;;;;;;;;;;;17.65;74.73;101618.19;5000919;28;1644;-60
2021/10/06 18:24:31;;;;;;;;;;;;;;;17.64;74.17;101616.47;4994266;28;1643;-60
2021/10/06 18:26:56;;;;;;;;;;;;;;;17.63;74.30;101629.03;4996015;28;1626;-60
2021/10/06 18:29:21;;;;;;;;;;;;;;;17.65;74.71;101620.88;4997098;28;1535;-60
2021/10/06 18:31:46;;;;;;;;;;;;;;;17.64;74.65;101625.41;4994195;28;1572;-60
2021/10/06 18:34:11;;;;;;;;;;;;;;;17.64;74.70;101628.09;4994592;28;1953;-59
2021/10/06 18:36:36;;;;;;;;;;;;;;;17.64;74.70;101635.31;4994334;28;1761;-62
2021/10/06 18:39:02;;;;;;;;;;;;;;;17.62;74.84;101643.50;4994283;28;1607;-60
2021/10/06 18:41:27;;;;;;;;;;;;;;;17.62;74.72;101645.34;4990694;28;1702;-60
2021/10/06 18:43:52;;;;;;;;;;;;;;;17.63;74.58;101645.22;4991202;28;1488;-58
2021/10/06 18:46:18;;;;;;;;;;;;;;;17.64;74.39;101646.13;4994662;28;2335;-59
2021/10/06 18:48:43;;;;;;;;;;;;;;;17.62;74.32;101651.59;4996922;28;1869;-59
2021/10/06 18:51:08;;;;;;;;;;;;;;;17.61;74.52;101654.41;4998505;28;1866;-58
2021/10/06 18:53:33;;;;;;;;;;;;;;;17.62;74.28;101650.72;4996281;28;1894;-60
2021/10/06 18:55:58;;;;;;;;;;;;;;;17.62;74.41;101664.22;4993221;28;1713;-59
2021/10/06 18:58:23;;;;;;;;;;;;;;;17.62;74.36;101654.28;4992982;28;1563;-60
2021/10/06 19:00:49;;;;;;;;;;;;;;;17.62;74.21;101661.50;4994607;28;1740;-59
2021/10/06 19:03:14;;;;;;;;;;;;;;;17.60;74.42;101667.03;4993151;28;1638;-58
2021/10/06 19:05:39;;;;;;;;;;;;;;;17.59;74.83;101670.69;4993543;28;2087;-56
2021/10/06 19:08:04;;;;;;;;;;;;;;;17.59;74.49;101677.94;4994477;28;1661;-58
2021/10/06 19:10:29;;;;;;;;;;;;;;;17.59;74.92;101681.47;4994141;28;1787;-58